This is the latest recevied weather packets stored in our database for station/object EA7RX-4. If no packets are shown the sender has not sent any weather packets the latest 1 day(s).
| Time | Temp. | Humidity | Pressure | Rain* | Wind** | Luminosity | Snow |
|---|---|---|---|---|---|---|---|
| 1836274377 | 18.89° C | 81% | 1020.6 hPa | 0 mm | 0.45 m/s, 67° | - | - |
| 1836274227 | 18.89° C | 81% | 1020.6 hPa | 0 mm | 0.45 m/s, 66° | - | - |
| 1778037003 | 6.67° C | 74% | 1010.6 hPa | 0 mm | 1.79 m/s, 69° | 0 W/m² | - |
| 1778036403 | 6.67° C | 74% | 1010.6 hPa | 0 mm | 2.24 m/s, 70° | 0 W/m² | - |
| 1778035803 | 6.67° C | 74% | 1010.7 hPa | 0 mm | 1.79 m/s, 65° | 0 W/m² | - |
| 1778035203 | 6.67° C | 75% | 1010.7 hPa | 0 mm | 1.79 m/s, 72° | 0 W/m² | - |
| 1778034603 | 6.67° C | 75% | 1010.6 hPa | 0 mm | 1.79 m/s, 72° | 0 W/m² | - |
| 1778033403 | 7.22° C | 73% | 1010.6 hPa | 0 mm | 1.34 m/s, 71° | 0 W/m² | - |
| 1778032803 | 7.22° C | 73% | 1011 hPa | 0 mm | 1.34 m/s, 68° | 0 W/m² | - |
| 1778032203 | 7.22° C | 72% | 1010.8 hPa | 0 mm | 1.34 m/s, 64° | 0 W/m² | - |
| 1778031603 | 7.22° C | 73% | 1011 hPa | 0 mm | 0.89 m/s, 83° | 0 W/m² | - |
| 1778031003 | 7.22° C | 73% | 1011 hPa | 0 mm | 1.34 m/s, 78° | 0 W/m² | - |
| 1778030403 | 7.22° C | 72% | 1011 hPa | 0 mm | 1.79 m/s, 77° | 0 W/m² | - |
| 1778029803 | 7.22° C | 72% | 1010.9 hPa | 0 mm | 1.34 m/s, 79° | 0 W/m² | - |
| 1778029203 | 7.78° C | 71% | 1011 hPa | 0 mm | 1.79 m/s, 67° | 0 W/m² | - |
| 1778028603 | 7.22° C | 72% | 1011.2 hPa | 0 mm | 1.34 m/s, 71° | 0 W/m² | - |
| 1778028003 | 7.78° C | 71% | 1011 hPa | 0 mm | 1.34 m/s, 86° | 0 W/m² | - |
| 1778027403 | 7.78° C | 70% | 1011.2 hPa | 0 mm | 1.34 m/s, 74° | 0 W/m² | - |
| 1778026803 | 7.78° C | 69% | 1011.3 hPa | 0 mm | 1.34 m/s, 71° | 0 W/m² | - |
| 1778026203 | 7.78° C | 70% | 1011.5 hPa | 0 mm | 1.34 m/s, 66° | 0 W/m² | - |
| 1778025603 | 8.89° C | 65% | 1011.4 hPa | 0 mm | 1.34 m/s, 56° | 0 W/m² | - |
| 1778025003 | 8.89° C | 64% | 1011.4 hPa | 0 mm | 1.79 m/s, 50° | 0 W/m² | - |
| 1778024403 | 8.89° C | 64% | 1011.4 hPa | 0 mm | 1.79 m/s, 48° | 0 W/m² | - |
| 1778023803 | 8.33° C | 65% | 1011.4 hPa | 0 mm | 1.79 m/s, 70° | 0 W/m² | - |
| 1778023203 | 9.44° C | 61% | 1011.3 hPa | 0 mm | 2.24 m/s, 56° | 0 W/m² | - |
* Rain latest hour (hover to see other rain measurements)
** Current wind speed in m/s (hover to see current wind gust speed)